sensor_id;sensor_type;location;lat;lon;timestamp;pressure;altitude;pressure_sealevel;temperature;humidity
64064;BME280;50314;50.618;10.642;2023-07-13T00:00:42;96564.28;;;24.99;21.29
64064;BME280;50314;50.618;10.642;2023-07-13T00:03:07;96565.31;;;24.98;21.38
64064;BME280;50314;50.618;10.642;2023-07-13T00:05:34;96553.31;;;24.94;21.21
64064;BME280;50314;50.618;10.642;2023-07-13T00:08:00;96557.66;;;24.95;21.28
64064;BME280;50314;50.618;10.642;2023-07-13T00:10:26;96561.59;;;24.92;21.55
64064;BME280;50314;50.618;10.642;2023-07-13T00:12:52;96569.06;;;24.90;21.29
64064;BME280;50314;50.618;10.642;2023-07-13T00:15:24;96572.16;;;24.87;21.41
64064;BME280;50314;50.618;10.642;2023-07-13T00:17:54;96568.22;;;24.83;21.31
64064;BME280;50314;50.618;10.642;2023-07-13T00:20:21;96559.94;;;24.84;21.17
64064;BME280;50314;50.618;10.642;2023-07-13T00:22:48;96561.19;;;24.82;21.30
64064;BME280;50314;50.618;10.642;2023-07-13T00:25:14;96556.81;;;24.74;21.47
64064;BME280;50314;50.618;10.642;2023-07-13T00:27:42;96550.84;;;24.79;21.26
64064;BME280;50314;50.618;10.642;2023-07-13T00:30:08;96550.19;;;24.77;21.16
64064;BME280;50314;50.618;10.642;2023-07-13T00:32:34;96554.94;;;24.75;21.37
64064;BME280;50314;50.618;10.642;2023-07-13T00:35:01;96554.34;;;24.73;21.16
64064;BME280;50314;50.618;10.642;2023-07-13T00:37:28;96552.91;;;24.70;21.45
64064;BME280;50314;50.618;10.642;2023-07-13T00:39:54;96543.34;;;24.68;21.43
64064;BME280;50314;50.618;10.642;2023-07-13T00:42:20;96547.31;;;24.65;21.25
64064;BME280;50314;50.618;10.642;2023-07-13T00:47:53;96548.13;;;24.59;21.19
64064;BME280;50314;50.618;10.642;2023-07-13T00:50:21;96543.16;;;24.56;21.23
64064;BME280;50314;50.618;10.642;2023-07-13T00:52:50;96544.22;;;24.55;21.31
64064;BME280;50314;50.618;10.642;2023-07-13T00:55:17;96543.56;;;24.53;21.30
64064;BME280;50314;50.618;10.642;2023-07-13T00:57:44;96550.41;;;24.49;21.12
64064;BME280;50314;50.618;10.642;2023-07-13T01:00:11;96543.31;;;24.48;21.37
64064;BME280;50314;50.618;10.642;2023-07-13T01:02:42;96544.97;;;24.42;21.60
64064;BME280;50314;50.618;10.642;2023-07-13T01:05:15;96548.50;;;24.43;21.48
64064;BME280;50314;50.618;10.642;2023-07-13T01:07:43;96546.22;;;24.39;21.15
64064;BME280;50314;50.618;10.642;2023-07-13T01:10:12;96551.81;;;24.38;21.15
64064;BME280;50314;50.618;10.642;2023-07-13T01:12:38;96553.25;;;24.34;21.52
64064;BME280;50314;50.618;10.642;2023-07-13T01:15:05;96551.59;;;24.33;21.43
64064;BME280;50314;50.618;10.642;2023-07-13T01:17:33;96561.72;;;24.31;21.22
64064;BME280;50314;50.618;10.642;2023-07-13T01:19:59;96549.53;;;24.28;21.38
64064;BME280;50314;50.618;10.642;2023-07-13T01:22:25;96549.94;;;24.25;20.82
64064;BME280;50314;50.618;10.642;2023-07-13T01:24:53;96546.59;;;24.23;21.15
64064;BME280;50314;50.618;10.642;2023-07-13T01:27:23;96545.53;;;24.18;20.92
64064;BME280;50314;50.618;10.642;2023-07-13T01:29:53;96553.63;;;24.18;21.12
64064;BME280;50314;50.618;10.642;2023-07-13T01:32:27;96557.56;;;24.15;21.23
64064;BME280;50314;50.618;10.642;2023-07-13T01:34:53;96557.97;;;24.12;21.09
64064;BME280;50314;50.618;10.642;2023-07-13T01:37:20;96558.16;;;24.10;21.22
64064;BME280;50314;50.618;10.642;2023-07-13T01:39:46;96563.53;;;24.10;21.23
64064;BME280;50314;50.618;10.642;2023-07-13T01:42:13;96561.25;;;24.07;21.00
64064;BME280;50314;50.618;10.642;2023-07-13T01:44:38;96559.81;;;24.05;21.40
64064;BME280;50314;50.618;10.642;2023-07-13T01:47:04;96563.50;;;24.04;21.28
64064;BME280;50314;50.618;10.642;2023-07-13T01:49:30;96564.75;;;24.01;21.15
64064;BME280;50314;50.618;10.642;2023-07-13T01:51:55;96562.25;;;24.00;20.94
64064;BME280;50314;50.618;10.642;2023-07-13T01:54:21;96563.50;;;23.97;21.44
64064;BME280;50314;50.618;10.642;2023-07-13T01:56:46;96566.41;;;23.96;21.45
64064;BME280;50314;50.618;10.642;2023-07-13T01:59:12;96560.34;;;23.93;21.20
64064;BME280;50314;50.618;10.642;2023-07-13T02:01:37;96562.44;;;23.91;21.27
64064;BME280;50314;50.618;10.642;2023-07-13T02:04:03;96558.06;;;23.90;20.96
64064;BME280;50314;50.618;10.642;2023-07-13T02:06:29;96554.75;;;23.88;21.33
64064;BME280;50314;50.618;10.642;2023-07-13T02:08:54;96550.81;;;23.84;21.16
64064;BME280;50314;50.618;10.642;2023-07-13T02:11:20;96559.06;;;23.83;21.42
64064;BME280;50314;50.618;10.642;2023-07-13T02:13:45;96556.59;;;23.81;21.03
64064;BME280;50314;50.618;10.642;2023-07-13T02:16:11;96561.34;;;23.79;21.20
64064;BME280;50314;50.618;10.642;2023-07-13T02:18:36;96557.19;;;23.77;21.00
64064;BME280;50314;50.618;10.642;2023-07-13T02:21:02;96561.13;;;23.74;21.51
64064;BME280;50314;50.618;10.642;2023-07-13T02:23:28;96564.22;;;23.71;21.10
64064;BME280;50314;50.618;10.642;2023-07-13T02:25:58;96571.00;;;23.67;21.05
64064;BME280;50314;50.618;10.642;2023-07-13T02:28:24;96571.00;;;23.67;21.43
64064;BME280;50314;50.618;10.642;2023-07-13T02:30:49;96568.72;;;23.64;21.27
64064;BME280;50314;50.618;10.642;2023-07-13T02:33:14;96565.00;;;23.65;21.49
64064;BME280;50314;50.618;10.642;2023-07-13T02:35:40;96570.56;;;23.63;21.59
64064;BME280;50314;50.618;10.642;2023-07-13T02:38:06;96571.81;;;23.61;21.53
64064;BME280;50314;50.618;10.642;2023-07-13T02:40:32;96570.34;;;23.58;21.51
64064;BME280;50314;50.618;10.642;2023-07-13T02:43:01;96571.56;;;23.56;21.78
64064;BME280;50314;50.618;10.642;2023-07-13T02:45:27;96564.94;;;23.52;21.74
64064;BME280;50314;50.618;10.642;2023-07-13T02:47:53;96565.97;;;23.51;21.61
64064;BME280;50314;50.618;10.642;2023-07-13T02:50:19;96565.31;;;23.49;21.33
64064;BME280;50314;50.618;10.642;2023-07-13T02:52:44;96576.28;;;23.47;21.39
64064;BME280;50314;50.618;10.642;2023-07-13T02:55:10;96577.50;;;23.44;21.39
64064;BME280;50314;50.618;10.642;2023-07-13T02:57:36;96571.50;;;23.42;21.13
64064;BME280;50314;50.618;10.642;2023-07-13T03:00:02;96578.91;;;23.40;21.69
64064;BME280;50314;50.618;10.642;2023-07-13T03:02:31;96578.25;;;23.38;21.30
64064;BME280;50314;50.618;10.642;2023-07-13T03:04:58;96580.31;;;23.36;21.34
64064;BME280;50314;50.618;10.642;2023-07-13T03:07:23;96578.88;;;23.34;21.23
64064;BME280;50314;50.618;10.642;2023-07-13T03:09:55;96582.78;;;23.31;21.60
64064;BME280;50314;50.618;10.642;2023-07-13T03:12:21;96587.50;;;23.29;21.76
64064;BME280;50314;50.618;10.642;2023-07-13T03:14:47;96585.03;;;23.28;21.51
64064;BME280;50314;50.618;10.642;2023-07-13T03:17:12;96582.50;;;23.26;21.63
64064;BME280;50314;50.618;10.642;2023-07-13T03:19:37;96584.59;;;23.24;21.92
64064;BME280;50314;50.618;10.642;2023-07-13T03:22:03;96590.13;;;23.22;21.74
64064;BME280;50314;50.618;10.642;2023-07-13T03:24:29;96585.81;;;23.21;21.70
64064;BME280;50314;50.618;10.642;2023-07-13T03:26:54;96582.28;;;23.21;21.60
64064;BME280;50314;50.618;10.642;2023-07-13T03:29:20;96589.72;;;23.19;21.77
64064;BME280;50314;50.618;10.642;2023-07-13T03:31:46;96589.09;;;23.17;21.73
64064;BME280;50314;50.618;10.642;2023-07-13T03:34:12;96589.28;;;23.15;21.54
64064;BME280;50314;50.618;10.642;2023-07-13T03:36:37;96594.84;;;23.14;21.84
64064;BME280;50314;50.618;10.642;2023-07-13T03:39:03;96594.84;;;23.14;21.92
64064;BME280;50314;50.618;10.642;2023-07-13T03:41:29;96588.84;;;23.12;21.71
64064;BME280;50314;50.618;10.642;2023-07-13T03:43:56;96597.28;;;23.09;21.88
64064;BME280;50314;50.618;10.642;2023-07-13T03:46:22;96595.63;;;23.08;21.81
64064;BME280;50314;50.618;10.642;2023-07-13T03:48:47;96604.72;;;23.07;21.94
64064;BME280;50314;50.618;10.642;2023-07-13T03:51:15;96602.22;;;23.05;21.71
64064;BME280;50314;50.618;10.642;2023-07-13T03:53:43;96597.06;;;23.04;21.63
64064;BME280;50314;50.618;10.642;2023-07-13T03:56:09;96603.44;;;23.03;21.44
64064;BME280;50314;50.618;10.642;2023-07-13T03:58:39;96609.84;;;23.02;21.91
64064;BME280;50314;50.618;10.642;2023-07-13T04:01:06;96610.88;;;23.01;21.66
64064;BME280;50314;50.618;10.642;2023-07-13T04:03:33;96603.84;;;23.00;21.53
64064;BME280;50314;50.618;10.642;2023-07-13T04:06:00;96611.25;;;22.97;21.99
64064;BME280;50314;50.618;10.642;2023-07-13T04:08:27;96616.81;;;22.96;21.94
64064;BME280;50314;50.618;10.642;2023-07-13T04:10:53;96625.06;;;22.94;22.00
64064;BME280;50314;50.618;10.642;2023-07-13T04:13:18;96619.03;;;22.92;21.68
64064;BME280;50314;50.618;10.642;2023-07-13T04:15:44;96620.28;;;22.90;22.05
64064;BME280;50314;50.618;10.642;2023-07-13T04:18:09;96621.50;;;22.87;22.18
64064;BME280;50314;50.618;10.642;2023-07-13T04:20:35;96623.16;;;22.88;22.22
64064;BME280;50314;50.618;10.642;2023-07-13T04:23:00;96633.25;;;22.86;21.88
64064;BME280;50314;50.618;10.642;2023-07-13T04:25:26;96636.31;;;22.83;21.96
64064;BME280;50314;50.618;10.642;2023-07-13T04:27:53;96643.72;;;22.81;22.26
64064;BME280;50314;50.618;10.642;2023-07-13T04:30:19;96640.38;;;22.79;21.75
64064;BME280;50314;50.618;10.642;2023-07-13T04:32:45;96640.38;;;22.79;22.24
64064;BME280;50314;50.618;10.642;2023-07-13T04:35:10;96646.16;;;22.76;21.81
64064;BME280;50314;50.618;10.642;2023-07-13T04:37:36;96647.16;;;22.75;22.26
64064;BME280;50314;50.618;10.642;2023-07-13T04:40:02;96644.84;;;22.72;22.33
64064;BME280;50314;50.618;10.642;2023-07-13T04:42:29;96646.91;;;22.70;21.80
64064;BME280;50314;50.618;10.642;2023-07-13T04:44:55;96655.97;;;22.69;22.04
64064;BME280;50314;50.618;10.642;2023-07-13T04:47:20;96644.22;;;22.70;21.93
64064;BME280;50314;50.618;10.642;2023-07-13T04:49:46;96651.25;;;22.71;21.91
64064;BME280;50314;50.618;10.642;2023-07-13T04:52:12;96651.47;;;22.69;21.96
64064;BME280;50314;50.618;10.642;2023-07-13T04:54:38;96654.97;;;22.70;22.64
64064;BME280;50314;50.618;10.642;2023-07-13T04:57:05;96653.94;;;22.71;22.01
64064;BME280;50314;50.618;10.642;2023-07-13T04:59:34;96653.94;;;22.71;22.18
64064;BME280;50314;50.618;10.642;2023-07-13T05:01:59;96652.72;;;22.73;22.55
64064;BME280;50314;50.618;10.642;2023-07-13T05:04:26;96658.84;;;22.67;22.24
64064;BME280;50314;50.618;10.642;2023-07-13T05:06:51;96651.63;;;22.68;22.39
64064;BME280;50314;50.618;10.642;2023-07-13T05:09:17;96653.56;;;22.74;22.49
64064;BME280;50314;50.618;10.642;2023-07-13T05:11:43;96648.19;;;22.74;22.19
64064;BME280;50314;50.618;10.642;2023-07-13T05:14:08;96652.53;;;22.75;22.83
64064;BME280;50314;50.618;10.642;2023-07-13T05:16:35;96648.63;;;22.78;22.72
64064;BME280;50314;50.618;10.642;2023-07-13T05:19:00;96646.59;;;22.80;22.82
64064;BME280;50314;50.618;10.642;2023-07-13T05:21:26;96648.25;;;22.81;22.82
64064;BME280;50314;50.618;10.642;2023-07-13T05:23:51;96656.09;;;22.82;22.53
64064;BME280;50314;50.618;10.642;2023-07-13T05:26:17;96662.13;;;22.84;22.90
64064;BME280;50314;50.618;10.642;2023-07-13T05:28:42;96654.88;;;22.85;22.60
64064;BME280;50314;50.618;10.642;2023-07-13T05:31:09;96652.22;;;22.85;22.99
64064;BME280;50314;50.618;10.642;2023-07-13T05:33:35;96657.22;;;22.88;22.59
64064;BME280;50314;50.618;10.642;2023-07-13T05:36:00;96652.69;;;22.88;22.98
64064;BME280;50314;50.618;10.642;2023-07-13T05:38:27;96657.66;;;22.91;22.83
64064;BME280;50314;50.618;10.642;2023-07-13T05:40:54;96663.50;;;22.95;22.43
64064;BME280;50314;50.618;10.642;2023-07-13T05:43:20;96659.59;;;22.97;22.86
64064;BME280;50314;50.618;10.642;2023-07-13T05:45:46;96655.50;;;23.02;22.69
64064;BME280;50314;50.618;10.642;2023-07-13T05:48:12;96663.16;;;23.05;22.47
64064;BME280;50314;50.618;10.642;2023-07-13T05:50:37;96661.75;;;23.09;22.25
64064;BME280;50314;50.618;10.642;2023-07-13T05:53:03;96664.03;;;23.12;22.82
64064;BME280;50314;50.618;10.642;2023-07-13T05:55:29;96669.69;;;23.17;22.41
64064;BME280;50314;50.618;10.642;2023-07-13T05:57:54;96670.94;;;23.21;22.75
64064;BME280;50314;50.618;10.642;2023-07-13T06:00:20;96672.22;;;23.25;22.65
64064;BME280;50314;50.618;10.642;2023-07-13T06:02:46;96677.84;;;23.30;22.46
64064;BME280;50314;50.618;10.642;2023-07-13T06:05:11;96675.38;;;23.35;22.50
64064;BME280;50314;50.618;10.642;2023-07-13T06:07:37;96674.63;;;23.41;22.76
64064;BME280;50314;50.618;10.642;2023-07-13T06:10:03;96675.72;;;23.47;22.19
64064;BME280;50314;50.618;10.642;2023-07-13T06:12:29;96686.53;;;23.54;22.15
64064;BME280;50314;50.618;10.642;2023-07-13T06:15:27;96688.19;;;23.55;22.10
64064;BME280;50314;50.618;10.642;2023-07-13T06:18:15;96688.84;;;23.63;22.34
64064;BME280;50314;50.618;10.642;2023-07-13T06:20:41;96685.41;;;23.76;22.51
64064;BME280;50314;50.618;10.642;2023-07-13T06:23:06;96678.47;;;23.88;22.35
64064;BME280;50314;50.618;10.642;2023-07-13T06:25:32;96678.13;;;23.98;22.17
64064;BME280;50314;50.618;10.642;2023-07-13T06:27:57;96681.47;;;24.07;22.25
64064;BME280;50314;50.618;10.642;2023-07-13T06:30:22;96692.69;;;24.17;22.12
64064;BME280;50314;50.618;10.642;2023-07-13T06:32:48;96684.25;;;24.27;21.68
64064;BME280;50314;50.618;10.642;2023-07-13T06:35:14;96687.22;;;24.38;21.99
64064;BME280;50314;50.618;10.642;2023-07-13T06:37:39;96687.25;;;24.45;21.62
64064;BME280;50314;50.618;10.642;2023-07-13T06:40:05;96687.47;;;24.50;21.64
64064;BME280;50314;50.618;10.642;2023-07-13T06:42:31;96695.56;;;24.57;21.64
64064;BME280;50314;50.618;10.642;2023-07-13T06:44:56;96690.81;;;24.59;21.22
64064;BME280;50314;50.618;10.642;2023-07-13T06:47:22;96694.13;;;24.61;21.54
64064;BME280;50314;50.618;10.642;2023-07-13T06:49:47;96698.72;;;24.67;21.42
64064;BME280;50314;50.618;10.642;2023-07-13T06:52:13;96694.16;;;24.74;21.61
64064;BME280;50314;50.618;10.642;2023-07-13T06:54:38;96698.75;;;24.80;21.39
64064;BME280;50314;50.618;10.642;2023-07-13T06:57:04;96693.19;;;24.89;21.20
64064;BME280;50314;50.618;10.642;2023-07-13T06:59:29;96694.63;;;24.98;21.30
64064;BME280;50314;50.618;10.642;2023-07-13T07:01:55;96695.47;;;25.05;21.25
64064;BME280;50314;50.618;10.642;2023-07-13T07:04:20;96691.78;;;25.13;21.22
64064;BME280;50314;50.618;10.642;2023-07-13T07:06:46;96698.81;;;25.20;21.12
64064;BME280;50314;50.618;10.642;2023-07-13T07:09:12;96703.19;;;25.28;21.00
64064;BME280;50314;50.618;10.642;2023-07-13T07:11:38;96707.53;;;25.36;21.01
64064;BME280;50314;50.618;10.642;2023-07-13T07:14:04;96706.50;;;25.43;20.83
64064;BME280;50314;50.618;10.642;2023-07-13T07:16:29;96712.34;;;25.53;21.03
64064;BME280;50314;50.618;10.642;2023-07-13T07:18:55;96710.47;;;25.61;20.93
64064;BME280;50314;50.618;10.642;2023-07-13T07:21:21;96710.47;;;25.67;20.64
64064;BME280;50314;50.618;10.642;2023-07-13T07:23:48;96704.63;;;25.77;20.74
64064;BME280;50314;50.618;10.642;2023-07-13T07:26:14;96707.91;;;25.86;20.39
64064;BME280;50314;50.618;10.642;2023-07-13T07:28:39;96702.50;;;25.92;20.12
64064;BME280;50314;50.618;10.642;2023-07-13T07:31:05;96705.00;;;26.00;19.85
64064;BME280;50314;50.618;10.642;2023-07-13T07:33:31;96694.22;;;26.07;19.51
64064;BME280;50314;50.618;10.642;2023-07-13T07:35:57;96701.25;;;26.08;19.36
64064;BME280;50314;50.618;10.642;2023-07-13T07:38:22;96705.38;;;26.24;19.64
64064;BME280;50314;50.618;10.642;2023-07-13T07:40:47;96707.00;;;26.32;19.27
64064;BME280;50314;50.618;10.642;2023-07-13T07:43:13;96706.53;;;26.41;18.67
64064;BME280;50314;50.618;10.642;2023-07-13T07:45:39;96705.47;;;26.49;18.48
64064;BME280;50314;50.618;10.642;2023-07-13T07:48:06;96707.09;;;26.57;18.48
64064;BME280;50314;50.618;10.642;2023-07-13T07:50:32;96703.13;;;26.66;18.07
64064;BME280;50314;50.618;10.642;2023-07-13T07:52:58;96694.75;;;26.74;18.10
64064;BME280;50314;50.618;10.642;2023-07-13T07:55:24;96703.44;;;26.83;17.79
64064;BME280;50314;50.618;10.642;2023-07-13T07:57:53;96704.63;;;26.93;17.64
64064;BME280;50314;50.618;10.642;2023-07-13T08:00:19;96705.00;;;26.97;18.05
64064;BME280;50314;50.618;10.642;2023-07-13T08:02:45;96706.88;;;27.03;17.63
64064;BME280;50314;50.618;10.642;2023-07-13T08:05:11;96709.91;;;27.13;18.61
64064;BME280;50314;50.618;10.642;2023-07-13T08:07:37;96713.19;;;27.22;18.37
64064;BME280;50314;50.618;10.642;2023-07-13T08:10:04;96706.44;;;27.31;18.63
64064;BME280;50314;50.618;10.642;2023-07-13T08:12:29;96703.09;;;27.36;19.23
64064;BME280;50314;50.618;10.642;2023-07-13T08:14:55;96708.56;;;27.54;18.65
64064;BME280;50314;50.618;10.642;2023-07-13T08:17:23;96703.50;;;27.64;18.63
64064;BME280;50314;50.618;10.642;2023-07-13T08:19:49;96713.59;;;27.76;18.93
64064;BME280;50314;50.618;10.642;2023-07-13T08:22:15;96721.78;;;27.87;19.54
64064;BME280;50314;50.618;10.642;2023-07-13T08:24:40;96706.09;;;27.96;16.86
64064;BME280;50314;50.618;10.642;2023-07-13T08:27:08;96712.44;;;28.08;16.29
64064;BME280;50314;50.618;10.642;2023-07-13T08:29:33;96715.91;;;28.34;15.50
64064;BME280;50314;50.618;10.642;2023-07-13T08:31:59;96708.41;;;28.66;15.00
64064;BME280;50314;50.618;10.642;2023-07-13T08:34:24;96709.50;;;28.95;14.98
64064;BME280;50314;50.618;10.642;2023-07-13T08:36:50;96711.75;;;28.98;14.85
64064;BME280;50314;50.618;10.642;2023-07-13T08:39:15;96722.25;;;28.95;14.80
64064;BME280;50314;50.618;10.642;2023-07-13T08:41:41;96717.72;;;28.89;14.87
64064;BME280;50314;50.618;10.642;2023-07-13T08:44:18;96711.41;;;28.76;14.29
64064;BME280;50314;50.618;10.642;2023-07-13T08:46:47;96711.66;;;28.75;14.64
64064;BME280;50314;50.618;10.642;2023-07-13T08:49:16;96707.38;;;28.67;13.99
64064;BME280;50314;50.618;10.642;2023-07-13T08:51:46;96719.34;;;28.60;13.94
64064;BME280;50314;50.618;10.642;2023-07-13T08:54:32;96714.72;;;28.48;13.78
64064;BME280;50314;50.618;10.642;2023-07-13T08:56:59;96721.25;;;28.41;13.89
64064;BME280;50314;50.618;10.642;2023-07-13T08:59:29;96715.91;;;28.34;14.50
64064;BME280;50314;50.618;10.642;2023-07-13T09:04:26;96720.66;;;28.20;14.64
64064;BME280;50314;50.618;10.642;2023-07-13T09:09:35;96731.25;;;28.03;14.08
64064;BME280;50314;50.618;10.642;2023-07-13T09:17:30;96735.19;;;27.82;14.16
64064;BME280;50314;50.618;10.642;2023-07-13T09:20:44;96738.53;;;27.78;14.78
64064;BME280;50314;50.618;10.642;2023-07-13T09:23:15;96746.44;;;27.79;14.89
64064;BME280;50314;50.618;10.642;2023-07-13T09:25:45;96720.66;;;27.77;14.37
64064;BME280;50314;50.618;10.642;2023-07-13T09:28:18;96732.16;;;27.72;15.09
64064;BME280;50314;50.618;10.642;2023-07-13T09:30:51;96729.03;;;27.69;14.79
64064;BME280;50314;50.618;10.642;2023-07-13T09:33:19;96741.75;;;27.68;15.05
64064;BME280;50314;50.618;10.642;2023-07-13T09:35:45;96740.34;;;27.66;15.08
64064;BME280;50314;50.618;10.642;2023-07-13T09:38:18;96754.28;;;27.62;14.69
64064;BME280;50314;50.618;10.642;2023-07-13T09:43:17;96746.38;;;27.61;15.25
64064;BME280;50314;50.618;10.642;2023-07-13T09:45:45;96748.72;;;27.57;15.36
64064;BME280;50314;50.618;10.642;2023-07-13T09:48:13;96743.75;;;27.54;15.02
64064;BME280;50314;50.618;10.642;2023-07-13T09:50:40;96743.75;;;27.54;15.20
64064;BME280;50314;50.618;10.642;2023-07-13T09:53:12;96749.59;;;27.51;14.89
64064;BME280;50314;50.618;10.642;2023-07-13T09:55:39;96742.72;;;27.55;14.68
64064;BME280;50314;50.618;10.642;2023-07-13T09:58:21;96738.19;;;27.49;15.04
64064;BME280;50314;50.618;10.642;2023-07-13T10:01:02;96749.41;;;27.46;15.08
64064;BME280;50314;50.618;10.642;2023-07-13T10:03:30;96745.88;;;27.46;15.09
64064;BME280;50314;50.618;10.642;2023-07-13T10:06:12;96753.22;;;27.38;15.30
64064;BME280;50314;50.618;10.642;2023-07-13T10:08:38;96751.94;;;27.41;14.82
64064;BME280;50314;50.618;10.642;2023-07-13T10:11:14;96750.72;;;27.37;15.09
64064;BME280;50314;50.618;10.642;2023-07-13T10:13:45;96741.09;;;27.41;15.19
64064;BME280;50314;50.618;10.642;2023-07-13T10:16:11;96737.59;;;27.40;15.67
64064;BME280;50314;50.618;10.642;2023-07-13T10:18:47;96739.69;;;27.38;15.61
64064;BME280;50314;50.618;10.642;2023-07-13T10:21:18;96741.72;;;27.43;15.66
64064;BME280;50314;50.618;10.642;2023-07-13T10:23:49;96749.66;;;27.38;15.15
64064;BME280;50314;50.618;10.642;2023-07-13T10:26:23;96742.22;;;27.33;15.61
64064;BME280;50314;50.618;10.642;2023-07-13T10:28:53;96744.53;;;27.30;15.63
64064;BME280;50314;50.618;10.642;2023-07-13T10:31:21;96750.16;;;27.28;15.30
64064;BME280;50314;50.618;10.642;2023-07-13T10:33:47;96745.78;;;27.27;15.60
64064;BME280;50314;50.618;10.642;2023-07-13T10:38:46;96738.06;;;27.31;15.88
64064;BME280;50314;50.618;10.642;2023-07-13T10:41:20;96739.34;;;27.28;15.84
64064;BME280;50314;50.618;10.642;2023-07-13T10:43:54;96742.25;;;27.27;14.94
64064;BME280;50314;50.618;10.642;2023-07-13T10:46:23;96744.91;;;27.33;15.49
64064;BME280;50314;50.618;10.642;2023-07-13T10:48:55;96737.19;;;27.37;15.63
64064;BME280;50314;50.618;10.642;2023-07-13T10:51:22;96729.69;;;27.39;15.39
64064;BME280;50314;50.618;10.642;2023-07-13T10:56:43;96735.16;;;27.32;16.08
64064;BME280;50314;50.618;10.642;2023-07-13T10:59:18;96743.53;;;27.24;15.31
64064;BME280;50314;50.618;10.642;2023-07-13T11:04:22;96726.47;;;27.24;15.70
64064;BME280;50314;50.618;10.642;2023-07-13T11:06:52;96734.00;;;27.22;15.74
64064;BME280;50314;50.618;10.642;2023-07-13T11:09:39;96731.34;;;27.15;15.88
64064;BME280;50314;50.618;10.642;2023-07-13T11:20:19;96740.22;;;27.22;17.06
64064;BME280;50314;50.618;10.642;2023-07-13T11:23:21;96727.69;;;27.28;16.68
64064;BME280;50314;50.618;10.642;2023-07-13T11:25:38;96721.84;;;27.31;16.94
64064;BME280;50314;50.618;10.642;2023-07-13T11:33:27;96718.25;;;27.37;17.25
64064;BME280;50314;50.618;10.642;2023-07-13T11:36:03;96732.59;;;27.37;17.88
64064;BME280;50314;50.618;10.642;2023-07-13T11:38:36;96724.88;;;27.41;17.53
64064;BME280;50314;50.618;10.642;2023-07-13T11:41:25;96732.16;;;27.40;17.40
64064;BME280;50314;50.618;10.642;2023-07-13T11:44:01;96718.00;;;27.45;17.37
64064;BME280;50314;50.618;10.642;2023-07-13T11:46:28;96723.19;;;27.47;17.55
64064;BME280;50314;50.618;10.642;2023-07-13T11:48:54;96719.25;;;27.49;17.50
64064;BME280;50314;50.618;10.642;2023-07-13T11:51:27;96726.31;;;27.50;17.97
64064;BME280;50314;50.618;10.642;2023-07-13T11:53:55;96727.31;;;27.56;17.64
64064;BME280;50314;50.618;10.642;2023-07-13T11:56:23;96737.06;;;27.57;17.70
64064;BME280;50314;50.618;10.642;2023-07-13T11:58:55;96741.84;;;27.55;17.81
64064;BME280;50314;50.618;10.642;2023-07-13T12:01:23;96734.13;;;27.58;17.90
64064;BME280;50314;50.618;10.642;2023-07-13T12:03:50;96735.41;;;27.56;18.30
64064;BME280;50314;50.618;10.642;2023-07-13T12:06:35;96744.59;;;27.48;16.57
64064;BME280;50314;50.618;10.642;2023-07-13T12:09:12;96743.34;;;27.51;16.41
64064;BME280;50314;50.618;10.642;2023-07-13T12:11:40;96737.31;;;27.55;16.71
64064;BME280;50314;50.618;10.642;2023-07-13T12:14:14;96737.31;;;27.55;17.17
64064;BME280;50314;50.618;10.642;2023-07-13T12:16:40;96737.06;;;27.57;17.30
64064;BME280;50314;50.618;10.642;2023-07-13T12:19:18;96738.31;;;27.54;17.63
64064;BME280;50314;50.618;10.642;2023-07-13T12:21:45;96740.81;;;27.56;17.85
64064;BME280;50314;50.618;10.642;2023-07-13T12:24:16;96746.88;;;27.51;17.79
64064;BME280;50314;50.618;10.642;2023-07-13T12:26:42;96752.28;;;27.51;18.18
64064;BME280;50314;50.618;10.642;2023-07-13T12:29:08;96741.69;;;27.50;18.20
64064;BME280;50314;50.618;10.642;2023-07-13T12:31:43;96738.59;;;27.46;18.26
64064;BME280;50314;50.618;10.642;2023-07-13T12:34:21;96743.59;;;27.42;18.73
64064;BME280;50314;50.618;10.642;2023-07-13T12:36:59;96742.56;;;27.44;18.40
64064;BME280;50314;50.618;10.642;2023-07-13T12:39:34;96740.66;;;27.44;17.96
64064;BME280;50314;50.618;10.642;2023-07-13T12:42:25;96736.31;;;27.43;18.17
64064;BME280;50314;50.618;10.642;2023-07-13T12:44:56;96736.88;;;27.52;18.23
64064;BME280;50314;50.618;10.642;2023-07-13T12:47:23;96747.50;;;27.53;18.73
64064;BME280;50314;50.618;10.642;2023-07-13T12:49:54;96752.09;;;27.53;18.69
64064;BME280;50314;50.618;10.642;2023-07-13T12:52:23;96752.94;;;27.47;17.86
64064;BME280;50314;50.618;10.642;2023-07-13T12:54:58;96751.94;;;27.41;18.07
64064;BME280;50314;50.618;10.642;2023-07-13T12:57:25;96746.31;;;27.42;17.61
64064;BME280;50314;50.618;10.642;2023-07-13T12:59:55;96757.13;;;27.42;17.50
64064;BME280;50314;50.618;10.642;2023-07-13T13:02:29;96759.22;;;27.40;16.35
64064;BME280;50314;50.618;10.642;2023-07-13T13:04:59;96751.09;;;27.40;16.17
64064;BME280;50314;50.618;10.642;2023-07-13T13:07:25;96751.78;;;27.36;16.23
64064;BME280;50314;50.618;10.642;2023-07-13T13:09:51;96752.59;;;27.36;16.67
64064;BME280;50314;50.618;10.642;2023-07-13T13:12:19;96745.94;;;27.39;15.34
64064;BME280;50314;50.618;10.642;2023-07-13T13:14:44;96740.06;;;27.42;15.63
64064;BME280;50314;50.618;10.642;2023-07-13T13:17:20;96741.16;;;27.34;15.33
64064;BME280;50314;50.618;10.642;2023-07-13T13:19:46;96748.00;;;27.37;15.48
64064;BME280;50314;50.618;10.642;2023-07-13T13:22:12;96755.50;;;27.35;15.72
64064;BME280;50314;50.618;10.642;2023-07-13T13:24:39;96759.69;;;27.31;15.55
64064;BME280;50314;50.618;10.642;2023-07-13T13:27:04;96758.66;;;27.32;15.47
64064;BME280;50314;50.618;10.642;2023-07-13T13:29:32;96767.22;;;27.29;15.02
64064;BME280;50314;50.618;10.642;2023-07-13T13:31:58;96762.84;;;27.28;15.30